createdAt,value
2022-08-25T00:01:17.673Z,62.70
2022-08-25T00:03:45.322Z,62.50
2022-08-25T00:06:13.347Z,62.50
2022-08-25T00:08:41.017Z,62.40
2022-08-25T00:11:19.184Z,62.30
2022-08-25T00:13:49.761Z,62.20
2022-08-25T00:16:18.702Z,62.20
2022-08-25T00:18:48.939Z,62.10
2022-08-25T00:21:16.243Z,62.10
2022-08-25T00:23:43.729Z,62.10
2022-08-25T00:26:11.348Z,62.00
2022-08-25T00:28:39.578Z,61.90
2022-08-25T00:31:10.798Z,61.90
2022-08-25T00:33:37.662Z,61.90
2022-08-25T00:36:05.130Z,61.80
2022-08-25T00:38:31.971Z,61.70
2022-08-25T00:41:07.848Z,61.70
2022-08-25T00:43:51.946Z,61.60
2022-08-25T00:46:22.631Z,61.50
2022-08-25T00:48:55.300Z,61.40
2022-08-25T00:51:32.375Z,61.40
2022-08-25T00:53:59.473Z,61.40
2022-08-25T00:56:28.849Z,61.30
2022-08-25T00:58:56.382Z,61.30
2022-08-25T01:01:23.564Z,61.20
2022-08-25T01:03:51.179Z,61.20
2022-08-25T01:06:18.154Z,61.20
2022-08-25T01:08:45.050Z,61.30
2022-08-25T01:11:13.147Z,61.30
2022-08-25T01:13:47.061Z,61.40
2022-08-25T01:16:15.957Z,61.30
2022-08-25T01:18:54.907Z,61.40
2022-08-25T01:21:23.577Z,61.30
2022-08-25T01:23:52.479Z,61.20
2022-08-25T01:26:21.307Z,61.20
2022-08-25T01:29:22.177Z,61.10
2022-08-25T01:31:51.357Z,61.00
2022-08-25T01:34:19.434Z,61.00
2022-08-25T01:36:46.357Z,61.10
2022-08-25T01:39:14.079Z,60.90
2022-08-25T01:42:06.919Z,61.50
2022-08-25T01:44:36.733Z,60.80
2022-08-25T01:47:04.642Z,60.80
2022-08-25T01:49:32.513Z,60.80
2022-08-25T01:52:21.353Z,60.80
2022-08-25T01:54:48.710Z,60.80
2022-08-25T01:57:16.019Z,60.70
2022-08-25T01:59:43.085Z,60.70
2022-08-25T02:02:10.585Z,60.60
2022-08-25T02:04:37.780Z,60.60
2022-08-25T02:07:06.718Z,60.60
2022-08-25T02:09:34.681Z,60.70
2022-08-25T02:12:01.804Z,60.70
2022-08-25T02:14:28.686Z,60.70
2022-08-25T02:16:57.149Z,60.70
2022-08-25T02:19:25.903Z,60.70
2022-08-25T02:21:52.941Z,60.70
2022-08-25T02:24:20.069Z,60.70
2022-08-25T02:26:47.120Z,60.70
2022-08-25T02:29:14.488Z,60.60
2022-08-25T02:31:41.405Z,60.70
2022-08-25T02:34:09.597Z,60.60
2022-08-25T02:36:38.213Z,60.50
2022-08-25T02:39:07.108Z,60.50
2022-08-25T02:41:34.534Z,60.40
2022-08-25T02:44:03.386Z,60.40
2022-08-25T02:46:31.028Z,60.40
2022-08-25T02:48:58.289Z,60.30
2022-08-25T02:51:28.376Z,60.20
2022-08-25T02:53:57.352Z,60.20
2022-08-25T02:56:25.834Z,60.10
2022-08-25T02:58:52.826Z,60.00
2022-08-25T03:01:22.099Z,60.00
2022-08-25T03:03:56.121Z,59.90
2022-08-25T03:06:24.197Z,59.90
2022-08-25T03:08:52.496Z,59.90
2022-08-25T03:11:19.947Z,59.80
2022-08-25T03:13:51.034Z,59.80
2022-08-25T03:16:19.120Z,59.70
2022-08-25T03:18:46.386Z,59.70
2022-08-25T03:21:15.786Z,59.60
2022-08-25T03:23:43.517Z,59.60
2022-08-25T03:26:28.921Z,59.60
2022-08-25T03:28:55.873Z,59.60
2022-08-25T03:31:26.102Z,59.60
2022-08-25T03:33:53.840Z,59.60
2022-08-25T03:36:20.662Z,59.70
2022-08-25T03:38:49.420Z,59.60
2022-08-25T03:41:32.570Z,59.60
2022-08-25T03:44:01.094Z,59.60
2022-08-25T03:46:31.560Z,59.50
2022-08-25T03:49:00.760Z,60.20
2022-08-25T03:51:43.524Z,59.40
2022-08-25T03:54:11.372Z,59.40
2022-08-25T03:56:38.748Z,59.30
2022-08-25T03:59:06.050Z,59.30
2022-08-25T04:01:32.981Z,59.30
2022-08-25T04:03:59.802Z,59.20
2022-08-25T04:06:26.673Z,59.20
2022-08-25T04:08:53.517Z,59.10
2022-08-25T04:11:22.423Z,59.10
2022-08-25T04:13:50.146Z,59.10
2022-08-25T04:16:20.176Z,59.10
2022-08-25T04:18:48.270Z,59.00
2022-08-25T04:21:15.854Z,59.10
2022-08-25T04:23:44.632Z,59.00
2022-08-25T04:26:14.558Z,59.10
2022-08-25T04:28:41.874Z,59.10
2022-08-25T04:31:10.867Z,59.10
2022-08-25T04:33:38.760Z,59.10
2022-08-25T04:36:11.907Z,59.10
2022-08-25T04:38:41.164Z,59.20
2022-08-25T04:41:09.587Z,59.10
2022-08-25T04:43:38.042Z,59.10
2022-08-25T04:46:12.303Z,59.10
2022-08-25T04:48:40.433Z,59.10
2022-08-25T04:51:10.614Z,59.00
2022-08-25T04:53:37.857Z,59.00
2022-08-25T04:56:14.687Z,59.10
2022-08-25T04:58:42.448Z,59.10
2022-08-25T05:01:12.228Z,59.10
2022-08-25T05:03:39.177Z,59.10
2022-08-25T05:06:06.611Z,59.10
2022-08-25T05:08:33.929Z,59.10
2022-08-25T05:11:09.223Z,59.10
2022-08-25T05:13:36.651Z,59.80
2022-08-25T05:16:04.599Z,59.10
2022-08-25T05:18:36.663Z,59.10
2022-08-25T05:21:10.932Z,59.10
2022-08-25T05:23:38.606Z,59.20
2022-08-25T05:26:10.779Z,59.30
2022-08-25T05:28:42.048Z,59.40
2022-08-25T05:31:11.714Z,59.50
2022-08-25T05:33:40.124Z,59.50
2022-08-25T05:36:08.377Z,59.60
2022-08-25T05:38:35.335Z,59.80
2022-08-25T05:41:04.993Z,59.90
2022-08-25T05:43:32.255Z,60.00
2022-08-25T05:45:59.920Z,60.10
2022-08-25T05:48:27.259Z,60.20
2022-08-25T05:50:56.040Z,60.40
2022-08-25T05:53:23.424Z,60.50
2022-08-25T05:55:52.365Z,60.60
2022-08-25T05:58:19.229Z,60.70
2022-08-25T06:00:46.376Z,60.80
2022-08-25T06:03:13.420Z,60.90
2022-08-25T06:05:41.097Z,60.90
2022-08-25T06:08:08.141Z,61.10
2022-08-25T06:10:35.533Z,61.10
2022-08-25T06:13:02.907Z,61.30
2022-08-25T06:15:33.913Z,61.40
2022-08-25T06:18:03.338Z,61.50
2022-08-25T06:20:31.900Z,61.60
2022-08-25T06:23:00.141Z,61.80
2022-08-25T06:25:27.732Z,62.00
2022-08-25T06:27:55.378Z,62.00
2022-08-25T06:30:28.879Z,62.10
2022-08-25T06:32:55.927Z,62.30
2022-08-25T06:35:23.066Z,62.50
2022-08-25T06:37:49.962Z,62.60
2022-08-25T06:40:17.164Z,62.60
2022-08-25T06:42:48.466Z,62.80
2022-08-25T06:45:15.521Z,63.00
2022-08-25T06:47:42.847Z,63.00
2022-08-25T06:50:12.606Z,63.10
2022-08-25T06:52:39.395Z,63.20
2022-08-25T06:55:06.884Z,63.30
2022-08-25T06:57:35.781Z,63.30
2022-08-25T07:00:07.339Z,63.40
2022-08-25T07:02:35.431Z,63.50
2022-08-25T07:05:02.824Z,63.70
2022-08-25T07:07:43.757Z,63.90
2022-08-25T07:10:11.403Z,64.00
2022-08-25T07:12:38.644Z,64.00
2022-08-25T07:15:21.320Z,64.10
2022-08-25T07:17:49.456Z,64.10
2022-08-25T07:20:19.134Z,64.00
2022-08-25T07:22:46.952Z,64.10
2022-08-25T07:25:13.781Z,64.30
2022-08-25T07:27:42.515Z,64.40
2022-08-25T07:30:11.286Z,64.60
2022-08-25T07:32:41.912Z,64.70
2022-08-25T07:35:20.490Z,64.60
2022-08-25T07:37:57.071Z,64.70
2022-08-25T07:40:31.722Z,64.80
2022-08-25T07:43:03.901Z,64.80
2022-08-25T07:45:35.866Z,64.90
2022-08-25T07:48:10.761Z,64.90
2022-08-25T07:50:42.335Z,65.00
2022-08-25T07:53:10.025Z,65.10
2022-08-25T07:55:38.032Z,65.50
2022-08-25T07:58:07.104Z,65.70
2022-08-25T08:00:36.833Z,66.30
2022-08-25T08:03:12.878Z,66.30
2022-08-25T08:05:50.975Z,66.70
2022-08-25T08:08:19.038Z,66.50
2022-08-25T08:11:03.325Z,66.50
2022-08-25T08:13:35.762Z,66.50
2022-08-25T08:16:09.972Z,66.50
2022-08-25T08:18:38.306Z,66.60
2022-08-25T08:21:10.735Z,66.70
2022-08-25T08:23:37.756Z,66.60
2022-08-25T08:26:04.871Z,66.60
2022-08-25T08:28:31.667Z,66.60
2022-08-25T08:30:58.894Z,66.50
2022-08-25T08:33:25.742Z,66.50
2022-08-25T08:36:06.684Z,66.40
2022-08-25T08:38:35.518Z,66.50
2022-08-25T08:41:54.296Z,66.70
2022-08-25T08:44:42.059Z,67.50
2022-08-25T08:47:21.155Z,67.30
2022-08-25T08:50:05.881Z,67.90
2022-08-25T08:52:43.326Z,68.20
2022-08-25T08:55:21.871Z,67.60
2022-08-25T08:57:51.243Z,67.40
2022-08-25T09:00:18.558Z,67.30
2022-08-25T09:02:54.642Z,67.80
2022-08-25T09:05:23.081Z,68.30
2022-08-25T09:08:10.174Z,67.90
2022-08-25T09:11:10.265Z,68.10
2022-08-25T09:13:49.130Z,68.80
2022-08-25T09:16:43.039Z,69.10
2022-08-25T09:20:18.859Z,69.30
2022-08-25T09:23:01.155Z,69.20
2022-08-25T09:25:54.124Z,69.30
2022-08-25T09:28:33.073Z,69.10
2022-08-25T09:31:29.839Z,68.60
2022-08-25T09:34:00.155Z,68.60
2022-08-25T09:36:28.038Z,68.90
2022-08-25T09:38:55.975Z,69.10
2022-08-25T09:41:43.610Z,69.30
2022-08-25T09:44:24.062Z,69.20
2022-08-25T09:47:02.201Z,69.10
2022-08-25T09:49:39.038Z,69.20
2022-08-25T09:52:28.220Z,69.40
2022-08-25T09:54:57.871Z,69.30
2022-08-25T09:57:29.234Z,69.10
2022-08-25T09:59:57.628Z,69.00
2022-08-25T10:02:28.519Z,68.60
2022-08-25T10:04:56.498Z,68.40
2022-08-25T10:07:35.494Z,68.50
2022-08-25T10:10:08.012Z,68.40
2022-08-25T10:12:43.952Z,68.30
2022-08-25T10:15:16.874Z,68.10
2022-08-25T10:18:17.522Z,68.10
2022-08-25T10:20:44.575Z,67.90
2022-08-25T10:23:14.910Z,67.60
2022-08-25T10:25:57.983Z,67.60
2022-08-25T10:28:40.840Z,67.40
2022-08-25T10:31:18.497Z,67.10
2022-08-25T10:33:50.448Z,67.30
2022-08-25T10:36:21.616Z,67.50
2022-08-25T10:39:01.589Z,67.50
2022-08-25T10:42:25.485Z,67.10
2022-08-25T10:45:30.539Z,66.70
2022-08-25T10:48:00.403Z,66.80
2022-08-25T10:50:40.996Z,66.80
2022-08-25T10:53:25.303Z,66.90
2022-08-25T10:55:55.260Z,66.70
2022-08-25T10:58:45.341Z,66.60
2022-08-25T11:01:29.004Z,66.50
2022-08-25T11:04:08.232Z,66.60
2022-08-25T11:06:43.269Z,66.50
2022-08-25T11:09:15.749Z,66.20
2022-08-25T11:11:47.317Z,66.00
2022-08-25T11:14:24.017Z,65.70
2022-08-25T11:17:02.569Z,65.60
2022-08-25T11:19:38.001Z,65.60
2022-08-25T11:22:12.400Z,65.40
2022-08-25T11:25:07.193Z,65.30
2022-08-25T11:27:58.222Z,65.30
2022-08-25T11:30:25.939Z,65.20
2022-08-25T11:32:55.303Z,65.00
2022-08-25T11:35:47.218Z,65.10
2022-08-25T11:38:32.715Z,65.00
2022-08-25T11:41:21.527Z,64.80
2022-08-25T11:44:06.728Z,64.70
2022-08-25T11:46:45.532Z,64.70
2022-08-25T11:49:44.883Z,64.70
2022-08-25T11:52:34.986Z,64.60
2022-08-25T11:55:36.933Z,64.70
2022-08-25T11:58:27.844Z,64.60
2022-08-25T12:00:59.663Z,64.60
2022-08-25T12:03:32.214Z,64.90
2022-08-25T12:06:25.882Z,64.70
2022-08-25T12:09:04.967Z,64.70
2022-08-25T12:11:48.180Z,64.60
2022-08-25T12:14:24.447Z,64.60
2022-08-25T12:16:54.957Z,64.60
2022-08-25T12:19:49.938Z,64.60
2022-08-25T12:22:19.537Z,64.70
2022-08-25T12:25:00.041Z,64.60
2022-08-25T12:27:42.125Z,65.80
2022-08-25T12:30:47.974Z,65.10
2022-08-25T12:33:26.283Z,65.40
2022-08-25T12:36:06.408Z,65.30
2022-08-25T12:38:50.863Z,65.30
2022-08-25T12:41:27.235Z,65.50
2022-08-25T12:44:33.039Z,65.60
2022-08-25T12:47:23.530Z,65.60
2022-08-25T12:49:50.886Z,65.80
2022-08-25T12:52:26.093Z,65.80
2022-08-25T12:54:59.463Z,66.00
2022-08-25T12:57:44.567Z,65.80
2022-08-25T13:00:46.673Z,65.90
2022-08-25T13:03:49.800Z,65.90
2022-08-25T13:06:46.635Z,66.10
2022-08-25T13:10:07.351Z,65.90
2022-08-25T13:12:42.267Z,65.90
2022-08-25T13:15:14.911Z,65.90
2022-08-25T13:17:42.157Z,65.80
2022-08-25T13:20:30.986Z,65.60
2022-08-25T13:23:00.276Z,65.50
2022-08-25T13:25:32.689Z,65.40
2022-08-25T13:28:03.826Z,65.40
2022-08-25T13:30:36.655Z,65.60
2022-08-25T13:33:20.652Z,65.60
2022-08-25T13:36:11.475Z,65.50
2022-08-25T13:38:39.205Z,65.30
2022-08-25T13:41:09.603Z,65.20
2022-08-25T13:43:38.731Z,65.10
2022-08-25T13:46:06.246Z,64.90
2022-08-25T13:48:34.634Z,65.10
2022-08-25T13:51:16.275Z,65.20
2022-08-25T13:53:50.348Z,65.10
2022-08-25T13:56:40.056Z,65.10
2022-08-25T13:59:26.842Z,65.00
2022-08-25T14:01:55.233Z,64.90
2022-08-25T14:04:50.618Z,64.80
2022-08-25T14:07:21.410Z,64.80
2022-08-25T14:09:52.444Z,64.70
2022-08-25T14:12:46.187Z,64.80
2022-08-25T14:15:29.494Z,64.80
2022-08-25T14:18:13.999Z,64.90
2022-08-25T14:20:48.632Z,64.90
2022-08-25T14:23:19.219Z,64.90
2022-08-25T14:25:48.688Z,64.90
2022-08-25T14:28:20.568Z,65.20
2022-08-25T14:30:52.178Z,65.20
2022-08-25T14:33:25.394Z,65.20
2022-08-25T14:35:54.344Z,65.30
2022-08-25T14:38:22.376Z,65.40
2022-08-25T14:40:51.004Z,65.40
2022-08-25T14:43:18.407Z,65.30
2022-08-25T14:45:51.594Z,65.30
2022-08-25T14:48:25.555Z,65.10
2022-08-25T14:50:55.117Z,64.90
2022-08-25T14:53:22.293Z,64.90
2022-08-25T14:55:49.272Z,64.90
2022-08-25T14:58:18.483Z,64.80
2022-08-25T15:00:52.950Z,64.80
2022-08-25T15:03:31.814Z,64.70
2022-08-25T15:06:00.971Z,64.60
2022-08-25T15:08:47.527Z,64.40
2022-08-25T15:11:14.905Z,64.30
2022-08-25T15:13:49.183Z,64.20
2022-08-25T15:16:23.792Z,64.10
2022-08-25T15:19:01.699Z,64.10
2022-08-25T15:21:33.570Z,64.10
2022-08-25T15:24:03.459Z,64.20
2022-08-25T15:26:31.119Z,64.20
2022-08-25T15:28:59.511Z,64.20
2022-08-25T15:31:26.874Z,64.30
2022-08-25T15:33:53.825Z,64.30
2022-08-25T15:36:25.672Z,64.30
2022-08-25T15:38:53.147Z,64.20
2022-08-25T15:41:22.482Z,64.20
2022-08-25T15:43:54.088Z,64.20
2022-08-25T15:46:28.673Z,64.10
2022-08-25T15:48:59.431Z,64.10
2022-08-25T15:51:28.460Z,64.00
2022-08-25T15:53:56.397Z,64.00
2022-08-25T15:56:26.744Z,63.90
2022-08-25T15:58:55.417Z,63.90
2022-08-25T16:01:25.512Z,63.80
2022-08-25T16:03:53.045Z,63.70
2022-08-25T16:06:20.080Z,63.60
2022-08-25T16:08:47.593Z,63.60
2022-08-25T16:11:22.485Z,63.50
2022-08-25T16:13:51.463Z,63.50
2022-08-25T16:16:20.561Z,63.50
2022-08-25T16:18:47.451Z,63.50
2022-08-25T16:21:19.398Z,63.60
2022-08-25T16:23:47.148Z,63.50
2022-08-25T16:26:16.413Z,63.60
2022-08-25T16:28:44.876Z,63.50
2022-08-25T16:31:14.393Z,63.40
2022-08-25T16:36:14.660Z,63.40
2022-08-25T16:38:42.825Z,63.30
2022-08-25T16:41:24.670Z,63.30
2022-08-25T16:43:52.664Z,63.40
2022-08-25T16:46:21.655Z,63.50
2022-08-25T16:48:50.715Z,63.50
2022-08-25T16:51:22.598Z,63.50
2022-08-25T16:54:10.917Z,63.50
2022-08-25T16:56:38.642Z,63.80
2022-08-25T16:59:06.353Z,64.30
2022-08-25T17:01:36.755Z,63.90
2022-08-25T17:04:04.827Z,64.00
2022-08-25T17:06:37.418Z,64.20
2022-08-25T17:09:05.647Z,64.40
2022-08-25T17:11:42.798Z,64.60
2022-08-25T17:14:11.131Z,64.80
2022-08-25T17:16:38.171Z,64.80
2022-08-25T17:19:11.814Z,64.80
2022-08-25T17:21:44.899Z,64.90
2022-08-25T17:24:12.859Z,64.90
2022-08-25T17:26:41.887Z,64.90
2022-08-25T17:29:09.962Z,64.90
2022-08-25T17:31:40.046Z,64.90
2022-08-25T17:34:12.913Z,64.90
2022-08-25T17:36:43.843Z,64.90
2022-08-25T17:39:12.617Z,64.90
2022-08-25T17:41:39.977Z,64.90
2022-08-25T17:44:07.702Z,65.00
2022-08-25T17:46:35.088Z,65.20
2022-08-25T17:49:01.950Z,65.30
2022-08-25T17:51:29.760Z,65.50
2022-08-25T17:53:58.841Z,65.70
2022-08-25T17:56:27.611Z,65.80
2022-08-25T17:58:55.855Z,66.00
2022-08-25T18:01:26.493Z,66.10
2022-08-25T18:03:54.041Z,66.20
2022-08-25T18:06:22.196Z,66.30
2022-08-25T18:08:51.232Z,66.20
2022-08-25T18:11:20.783Z,66.30
2022-08-25T18:13:47.724Z,66.40
2022-08-25T18:16:17.344Z,66.50
2022-08-25T18:18:44.706Z,66.60
2022-08-25T18:21:15.536Z,66.70
2022-08-25T18:23:43.106Z,66.90
2022-08-25T18:26:12.848Z,67.20
2022-08-25T18:28:40.223Z,67.30
2022-08-25T18:31:12.065Z,67.40
2022-08-25T18:33:42.094Z,67.60
2022-08-25T18:36:09.784Z,67.80
2022-08-25T18:38:57.857Z,67.80
2022-08-25T18:41:25.718Z,67.80
2022-08-25T18:43:53.040Z,67.90
2022-08-25T18:46:22.510Z,68.00
2022-08-25T18:48:52.786Z,68.10
2022-08-25T18:51:22.892Z,68.20
2022-08-25T18:53:51.171Z,68.40
2022-08-25T18:56:22.611Z,68.30
2022-08-25T18:58:49.741Z,68.70
2022-08-25T19:01:18.455Z,68.50
2022-08-25T19:03:45.665Z,68.60
2022-08-25T19:06:12.711Z,68.80
2022-08-25T19:08:41.654Z,68.70
2022-08-25T19:11:09.984Z,68.60
2022-08-25T19:13:37.952Z,68.60
2022-08-25T19:16:29.954Z,68.50
2022-08-25T19:18:56.962Z,68.40
2022-08-25T19:21:25.335Z,68.40
2022-08-25T19:23:53.057Z,68.40
2022-08-25T19:26:20.733Z,68.40
2022-08-25T19:28:49.354Z,68.30
2022-08-25T19:31:24.547Z,68.40
2022-08-25T19:33:53.531Z,68.40
2022-08-25T19:36:24.234Z,68.40
2022-08-25T19:38:58.233Z,68.40
2022-08-25T19:41:27.385Z,68.40
2022-08-25T19:43:57.037Z,68.40
2022-08-25T19:46:35.636Z,68.30
2022-08-25T19:49:24.535Z,68.30
2022-08-25T19:51:52.876Z,68.20
2022-08-25T19:54:24.076Z,68.50
2022-08-25T19:56:55.003Z,68.20
2022-08-25T19:59:40.419Z,68.30
2022-08-25T20:02:16.590Z,68.30
2022-08-25T20:04:49.334Z,68.30
2022-08-25T20:07:19.545Z,68.30
2022-08-25T20:09:46.648Z,68.40
2022-08-25T20:14:41.196Z,68.50
2022-08-25T20:17:23.254Z,68.60
2022-08-25T20:19:57.355Z,68.70
2022-08-25T20:22:30.097Z,68.70
2022-08-25T20:24:59.928Z,68.80
2022-08-25T20:27:36.655Z,68.70
2022-08-25T20:30:08.132Z,68.80
2022-08-25T20:32:35.645Z,68.80
2022-08-25T20:35:04.893Z,68.80
2022-08-25T20:37:31.736Z,68.80
2022-08-25T20:40:01.197Z,68.80
2022-08-25T20:42:28.287Z,68.80
2022-08-25T20:44:55.250Z,68.80
2022-08-25T20:47:22.587Z,68.80
2022-08-25T20:49:50.345Z,68.80
2022-08-25T20:52:18.417Z,68.80
2022-08-25T20:54:46.928Z,68.80
2022-08-25T20:57:24.381Z,68.90
2022-08-25T20:59:53.463Z,68.90
2022-08-25T21:02:20.341Z,68.90
2022-08-25T21:04:50.363Z,68.90
2022-08-25T21:07:18.555Z,68.90
2022-08-25T21:09:45.912Z,68.90
2022-08-25T21:12:12.981Z,68.80
2022-08-25T21:14:41.676Z,68.70
2022-08-25T21:17:12.084Z,68.70
2022-08-25T21:19:39.875Z,68.60
2022-08-25T21:22:07.465Z,68.60
2022-08-25T21:24:34.542Z,68.50
2022-08-25T21:27:03.669Z,68.40
2022-08-25T21:29:32.787Z,68.40
2022-08-25T21:32:00.030Z,68.30
2022-08-25T21:34:28.885Z,68.30
2022-08-25T21:36:57.949Z,68.20
2022-08-25T21:39:27.525Z,68.20
2022-08-25T21:41:58.488Z,68.10
2022-08-25T21:44:27.047Z,68.80
2022-08-25T21:46:54.732Z,68.10
2022-08-25T21:49:23.321Z,68.20
2022-08-25T21:52:00.573Z,68.20
2022-08-25T21:54:29.076Z,68.20
2022-08-25T21:57:00.001Z,68.20
2022-08-25T21:59:32.946Z,68.30
2022-08-25T22:02:05.529Z,68.20
2022-08-25T22:04:32.960Z,68.30
2022-08-25T22:07:00.980Z,68.30
2022-08-25T22:09:29.790Z,68.30
2022-08-25T22:11:56.891Z,68.30
2022-08-25T22:14:26.259Z,68.30
2022-08-25T22:16:54.486Z,68.30
2022-08-25T22:19:21.755Z,68.30
2022-08-25T22:21:51.188Z,68.20
2022-08-25T22:24:19.079Z,68.20
2022-08-25T22:26:47.749Z,68.30
2022-08-25T22:29:24.707Z,68.30
2022-08-25T22:31:54.132Z,68.40
2022-08-25T22:34:30.521Z,68.40
2022-08-25T22:37:00.620Z,68.30
2022-08-25T22:39:28.111Z,68.30
2022-08-25T22:41:55.446Z,68.30
2022-08-25T22:44:25.670Z,68.20
2022-08-25T22:46:53.160Z,68.20
2022-08-25T22:49:19.974Z,68.20
2022-08-25T22:51:47.869Z,68.10
2022-08-25T22:54:16.243Z,68.00
2022-08-25T22:56:43.599Z,68.10
2022-08-25T22:59:12.441Z,68.10
2022-08-25T23:01:40.114Z,68.10
2022-08-25T23:04:07.609Z,68.10
2022-08-25T23:06:34.785Z,68.10
2022-08-25T23:09:04.257Z,68.10
2022-08-25T23:11:31.451Z,68.10
2022-08-25T23:14:05.401Z,68.10
2022-08-25T23:16:33.167Z,68.00
2022-08-25T23:19:00.692Z,68.00
2022-08-25T23:21:46.587Z,67.90
2022-08-25T23:24:29.472Z,67.90
2022-08-25T23:26:59.022Z,67.80
2022-08-25T23:29:27.531Z,67.80
2022-08-25T23:31:54.428Z,67.80
2022-08-25T23:34:21.767Z,67.70
2022-08-25T23:36:49.137Z,67.70
2022-08-25T23:39:16.196Z,67.70
2022-08-25T23:41:42.972Z,67.60
2022-08-25T23:44:11.518Z,67.40
2022-08-25T23:46:39.324Z,67.50
2022-08-25T23:49:08.267Z,67.40
2022-08-25T23:51:38.199Z,67.30
2022-08-25T23:54:09.351Z,67.30
2022-08-25T23:56:44.903Z,67.30
2022-08-25T23:59:24.336Z,67.20
